Change the Weather History Date:

Sunday, May 26, 2013

  Actual Average (KHKY) Record (KHKY)
Temperature  
Mean Temperature 64 °F -  
Max Temperature 75 °F 77 °F 94 °F (1953)
Min Temperature 52 °F 58 °F 44 °F (1988)
Degree Days  
Heating Degree Days 2    
Growing Degree Days 14 (Base 50)    
Moisture  
Dew Point 48 °F    
Average Humidity 64    
Maximum Humidity 97    
Minimum Humidity 31    
Precipitation  
Precipitation 0.00 in - - ()
Sea Level Pressure  
Sea Level Pressure 30.27 in    
Wind  
Wind Speed 2 mph (SE)    
Max Wind Speed 8 mph    
Max Gust Speed -    
Visibility 10 miles    
Events Rain    
Averages and records for this station are not official NWS values.
T = Trace of Precipitation, MM = Missing Value Source: NWS Daily Summary

Daily Weather History Graph

Daily Weather History Graph

Search for Another Location

Airport or City:

Trip Planner

Search our weather history database for the weather conditions in past years. The results will help you decide how hot, cold, wet, or windy it might be!

Date:

Astronomy

May. 26, 2013 Rise Set
Actual Time 6:13 AM EDT 8:33 PM EDT
Civil Twilight 5:44 AM EDT 9:02 PM EDT
Nautical Twilight 5:08 AM EDT 9:38 PM EDT
Astronomical Twilight 4:29 AM EDT 10:18 PM EDT
Moon 10:20 PM EDT (5/26) 7:41 AM EDT (5/26)
Length of Visible Light 15h 18m
Length of Day
14h 19m
Waning Gibbous, 97% of the Moon is Illuminated
May 26
Waning Gibbous
May 31
Last Quarter
Jun 8
New
Jun 16
First Quarter
Jun 23
Full

Hourly Weather History & Observations

Time (EDT) Temp. Dew Point Humidity Pressure Visibility Wind Dir Wind Speed Gust Speed Precip Events Conditions
12:15 AM 57.9 °F 48.2 °F 70% 30.26 in 10.0 mi North 3.5 mph - N/A   Overcast
12:35 AM 59.2 °F 44.8 °F 59% 30.26 in 10.0 mi NNE 3.5 mph - N/A   Overcast
12:55 AM 58.3 °F 48.6 °F 70% 30.26 in 10.0 mi Calm Calm - N/A   Overcast
1:15 AM 57.4 °F 48.0 °F 71% 30.26 in 10.0 mi NE 3.5 mph - N/A   Overcast
1:35 AM 60.3 °F 44.6 °F 56% 30.26 in 10.0 mi North 4.6 mph - N/A   Overcast
1:55 AM 60.1 °F 44.6 °F 57% 30.25 in 10.0 mi North 4.6 mph - N/A   Overcast
2:15 AM 60.3 °F 43.9 °F 55% 30.24 in 10.0 mi North 4.6 mph - N/A   Overcast
2:35 AM 59.0 °F 45.9 °F 62% 30.24 in 10.0 mi Calm Calm - N/A   Overcast
2:55 AM 58.5 °F 45.5 °F 62% 30.24 in 10.0 mi Calm Calm - N/A   Mostly Cloudy
3:15 AM 56.3 °F 49.1 °F 77% 30.24 in 10.0 mi Calm Calm - N/A   Scattered Clouds
3:35 AM 55.8 °F 50.0 °F 81% 30.25 in 10.0 mi Calm Calm - N/A   Overcast
3:55 AM 55.9 °F 48.6 °F 76% 30.25 in 10.0 mi East 3.5 mph - N/A   Overcast
4:15 AM 58.1 °F 45.3 °F 62% 30.26 in 10.0 mi East 3.5 mph - N/A   Overcast
4:35 AM 58.1 °F 45.3 °F 62% 30.26 in 10.0 mi East 3.5 mph - N/A   Overcast
4:55 AM 56.3 °F 47.7 °F 73% 30.27 in 10.0 mi ENE 3.5 mph - N/A   Overcast
5:15 AM 56.5 °F 48.0 °F 73% 30.28 in 10.0 mi Calm Calm - N/A   Overcast
5:35 AM 55.8 °F 46.6 °F 71% 30.29 in 10.0 mi Calm Calm - N/A Rain Light Rain
5:55 AM 53.8 °F 49.6 °F 86% 30.29 in 10.0 mi NNE 3.5 mph - N/A Rain Light Rain
6:15 AM 52.9 °F 50.7 °F 92% 30.29 in 10.0 mi Calm Calm - N/A Rain Light Rain
6:35 AM 53.2 °F 50.7 °F 91% 30.29 in 10.0 mi Calm Calm - N/A   Overcast
6:55 AM 54.0 °F 47.8 °F 80% 30.31 in 10.0 mi Calm Calm - N/A   Overcast
7:15 AM 53.2 °F 51.1 °F 92% 30.32 in 10.0 mi Calm Calm - N/A   Overcast
7:35 AM 53.8 °F 52.5 °F 95% 30.32 in 10.0 mi Calm Calm - N/A   Overcast
7:55 AM 54.7 °F 52.7 °F 93% 30.33 in 10.0 mi Calm Calm - N/A   Overcast
8:15 AM 55.6 °F 50.5 °F 83% 30.33 in 10.0 mi Calm Calm - N/A   Overcast
8:35 AM 56.5 °F 48.9 °F 76% 30.33 in 10.0 mi Calm Calm - N/A   Overcast
8:55 AM 56.7 °F 48.4 °F 74% 30.34 in 10.0 mi Calm Calm - N/A   Overcast
9:15 AM 56.5 °F 48.2 °F 74% 30.34 in 10.0 mi Calm Calm - N/A   Overcast
9:35 AM 56.8 °F 50.9 °F 80% 30.35 in 10.0 mi Calm Calm - N/A   Overcast
9:55 AM 57.0 °F 51.1 °F 81% 30.35 in 10.0 mi Calm Calm - N/A   Overcast
10:15 AM 57.6 °F 52.0 °F 82% 30.35 in 10.0 mi Calm Calm - N/A   Overcast
10:35 AM 59.2 °F 47.5 °F 65% 30.34 in 10.0 mi Calm Calm - N/A   Overcast
10:55 AM 61.3 °F 46.8 °F 59% 30.34 in 10.0 mi Calm Calm - N/A   Overcast
11:15 AM 62.4 °F 41.7 °F 47% 30.33 in 10.0 mi South 3.5 mph - N/A   Mostly Cloudy
11:35 AM 63.7 °F 44.2 °F 49% 30.34 in 10.0 mi SW 5.8 mph - N/A   Scattered Clouds
11:55 AM 65.3 °F 45.5 °F 49% 30.33 in 10.0 mi South 8.1 mph - N/A   Clear
12:15 PM 66.2 °F 44.1 °F 45% 30.32 in 10.0 mi South 8.1 mph - N/A   Clear
12:35 PM 66.9 °F 43.7 °F 43% 30.32 in 10.0 mi South 4.6 mph - N/A   Clear
12:55 PM 67.8 °F 44.1 °F 42% 30.31 in 10.0 mi SW 4.6 mph - N/A   Clear
1:15 PM 68.7 °F 41.5 °F 37% 30.30 in 10.0 mi Calm Calm - N/A   Clear
1:35 PM 70.0 °F 42.3 °F 37% 30.29 in 10.0 mi Calm Calm - N/A   Clear
1:55 PM 70.9 °F 43.0 °F 37% 30.28 in 10.0 mi Calm Calm - N/A   Clear
2:15 PM 72.0 °F 42.1 °F 34% 30.27 in 10.0 mi West 4.6 mph - N/A   Clear
2:35 PM 72.7 °F 43.9 °F 36% 30.27 in 10.0 mi South 8.1 mph - N/A   Clear
2:55 PM 72.7 °F 42.3 °F 33% 30.26 in 10.0 mi South 6.9 mph - N/A   Clear
3:15 PM 73.2 °F 42.6 °F 33% 30.25 in 10.0 mi Calm Calm - N/A   Clear
3:35 PM 74.1 °F 41.9 °F 31% 30.25 in 10.0 mi Calm Calm - N/A   Clear
3:55 PM 74.3 °F 42.3 °F 32% 30.24 in 10.0 mi Calm Calm - N/A   Clear
4:15 PM 74.5 °F 43.3 °F 33% 30.23 in 10.0 mi Calm Calm - N/A   Clear
4:35 PM 75.6 °F 44.2 °F 33% 30.23 in 10.0 mi South 4.6 mph - N/A   Clear
4:55 PM 75.4 °F 43.9 °F 32% 30.23 in 10.0 mi Calm Calm - N/A   Clear
5:15 PM 75.6 °F 43.7 °F 32% 30.22 in 10.0 mi Calm Calm - N/A   Clear
5:35 PM 75.6 °F 45.1 °F 34% 30.22 in 10.0 mi SSW 5.8 mph - N/A   Clear
5:55 PM 75.4 °F 49.3 °F 40% 30.22 in 10.0 mi SE 4.6 mph - N/A   Clear
6:15 PM 73.6 °F 49.1 °F 42% 30.22 in 10.0 mi SSE 3.5 mph - N/A   Clear
6:35 PM 73.8 °F 50.0 °F 43% 30.22 in 10.0 mi SSE 3.5 mph - N/A   Clear
6:55 PM 73.6 °F 50.5 °F 44% 30.22 in 10.0 mi South 4.6 mph - N/A   Clear
7:15 PM 73.0 °F 52.0 °F 48% 30.23 in 10.0 mi South 3.5 mph - N/A   Clear
7:35 PM 71.8 °F 53.2 °F 52% 30.23 in 10.0 mi SE 3.5 mph - N/A   Clear
7:55 PM 70.5 °F 56.3 °F 61% 30.23 in 10.0 mi Calm Calm - N/A   Clear
8:15 PM 66.7 °F 59.4 °F 77% 30.24 in 10.0 mi Calm Calm - N/A   Clear
8:35 PM 63.5 °F 59.0 °F 85% 30.25 in 10.0 mi Calm Calm - N/A   Clear
8:55 PM 61.0 °F 57.6 °F 88% 30.25 in 10.0 mi Calm Calm - N/A   Clear
9:15 PM 59.9 °F 56.3 °F 88% 30.25 in 10.0 mi Calm Calm - N/A   Clear
9:35 PM 57.4 °F 55.6 °F 94% 30.26 in 10.0 mi Calm Calm - N/A   Clear
9:55 PM 57.2 °F 55.2 °F 93% 30.26 in 10.0 mi Calm Calm - N/A   Clear
10:15 PM 56.3 °F 54.7 °F 94% 30.27 in 10.0 mi Calm Calm - N/A   Clear
10:35 PM 55.9 °F 54.5 °F 95% 30.27 in 10.0 mi Calm Calm - N/A   Clear
10:55 PM 55.4 °F 54.1 °F 96% 30.27 in 10.0 mi East 3.5 mph - N/A   Clear
11:15 PM 55.6 °F 54.5 °F 96% 30.27 in 10.0 mi Calm Calm - N/A   Clear
11:35 PM 55.2 °F 54.1 °F 96% 30.27 in 10.0 mi Calm Calm - N/A   Clear
11:55 PM 54.0 °F 53.2 °F 97% 30.28 in 10.0 mi Calm Calm - N/A   Clear